Time;durP1;ratioP1;P1;durP2;ratioP2;P2;SDS_P1;SDS_P2;PMS_P1;PMS_P2;Temp;Humidity;BMP_temperature;BMP_pressure;BME280_temperature;BME280_humidity;BME280_pressure;Samples;Min_cycle;Max_cycle;Signal;HPM_P1;HPM_P2
2021/12/13 00:00:35;;;;;;;2.42;2.22;;;;;;;6.66;70.31;99451.81;1720600;81;21143;-66
2021/12/13 00:03:10;;;;;;;2.58;2.37;;;;;;;6.65;70.21;99459.37;1756993;80;20947;-66
2021/12/13 00:05:50;;;;;;;2.10;1.90;;;;;;;6.66;70.18;99461.90;1747182;81;21073;-66
2021/12/13 00:08:27;;;;;;;2.45;2.25;;;;;;;6.61;70.14;99457.54;1722693;82;21091;-66
2021/12/13 00:11:14;;;;;;;2.50;2.30;;;;;;;6.62;69.98;99455.73;1756800;80;20978;-66
2021/12/13 00:13:50;;;;;;;3.45;2.58;;;;;;;6.59;70.02;99461.30;1753970;80;21136;-66
2021/12/13 00:16:27;;;;;;;2.22;2.02;;;;;;;6.57;70.30;99463.27;1721867;81;21009;-66
2021/12/13 00:18:58;;;;;;;3.30;2.42;;;;;;;6.62;70.12;99463.66;1757293;80;20891;-66
2021/12/13 00:21:39;;;;;;;1.92;1.82;;;;;;;6.64;70.08;99464.34;1758174;81;21064;-66
2021/12/13 00:24:34;;;;;;;2.45;2.10;;;;;;;6.65;70.13;99464.67;1722118;82;21367;-66
2021/12/13 00:27:06;;;;;;;2.60;2.30;;;;;;;6.67;70.07;99462.73;1718075;83;21224;-66
2021/12/13 00:29:47;;;;;;;2.30;2.10;;;;;;;6.63;69.97;99458.22;1687913;84;20951;-66
2021/12/13 00:32:19;;;;;;;2.17;1.98;;;;;;;6.63;70.11;99456.06;1720675;82;20930;-66
2021/12/13 00:34:58;;;;;;;2.45;2.25;;;;;;;6.61;70.16;99460.66;1721176;83;21145;-66
2021/12/13 00:37:38;;;;;;;2.95;2.35;;;;;;;6.63;70.07;99465.31;1756832;81;20987;-66
2021/12/13 00:40:18;;;;;;;2.33;2.12;;;;;;;6.58;70.18;99463.11;1756776;80;21150;-66
2021/12/13 00:42:53;;;;;;;1.82;1.72;;;;;;;6.60;70.28;99463.79;1761898;80;21101;-66
2021/12/13 00:45:21;;;;;;;2.15;1.95;;;;;;;6.62;71.48;99474.23;1758181;80;20954;-66
2021/12/13 00:47:47;;;;;;;2.80;2.00;;;;;;;6.64;70.58;99480.20;1732949;81;21018;-66
2021/12/13 00:50:23;;;;;;;2.30;1.98;;;;;;;6.63;70.45;99470.59;1718049;82;20927;-66
2021/12/13 00:52:50;;;;;;;1.92;1.72;;;;;;;6.66;70.51;99470.31;1724617;82;21815;-66
2021/12/13 00:55:29;;;;;;;1.92;1.82;;;;;;;6.70;70.31;99478.31;1716460;83;21027;-66
2021/12/13 00:58:17;;;;;;;2.10;1.90;;;;;;;6.71;70.23;99470.22;1715918;82;20939;-65
2021/12/13 01:00:57;;;;;;;3.95;2.10;;;;;;;6.71;70.09;99466.73;1722656;82;21753;-66
2021/12/13 01:03:42;;;;;;;2.20;2.00;;;;;;;6.66;70.19;99464.54;1718703;82;20930;-66
2021/12/13 01:06:42;;;;;;;4.87;2.00;;;;;;;6.73;70.14;99471.39;1752265;80;21315;-65
2021/12/13 01:10:05;;;;;;;2.50;2.08;;;;;;;6.68;69.92;99470.51;1750034;80;21054;-65
2021/12/13 01:12:33;;;;;;;3.65;2.37;;;;;;;6.70;69.80;99467.22;1752102;80;20899;-66
2021/12/13 01:15:10;;;;;;;2.25;2.00;;;;;;;6.73;69.70;99464.77;1750825;80;20978;-66
2021/12/13 01:17:55;;;;;;;1.85;1.67;;;;;;;6.77;69.57;99466.16;1748983;80;21460;-66
2021/12/13 01:20:33;;;;;;;2.25;1.85;;;;;;;6.81;69.27;99464.88;1752654;80;21112;-65
2021/12/13 01:23:04;;;;;;;1.98;1.85;;;;;;;6.73;69.44;99470.06;1747508;81;20934;-66
2021/12/13 01:25:49;;;;;;;1.80;1.70;;;;;;;6.73;69.45;99462.97;1753215;80;21516;-66
2021/12/13 01:28:25;;;;;;;2.12;1.82;;;;;;;6.73;69.32;99468.73;1720479;81;20991;-67
2021/12/13 01:31:13;;;;;;;1.87;1.77;;;;;;;6.68;69.06;99470.98;1710458;82;20942;-66
2021/12/13 01:33:44;;;;;;;2.42;1.98;;;;;;;6.63;69.27;99467.95;1705076;82;21568;-66
2021/12/13 01:36:14;;;;;;;2.00;1.80;;;;;;;6.62;69.55;99471.59;1689311;84;20955;-67
2021/12/13 01:38:50;;;;;;;2.17;1.98;;;;;;;6.63;69.49;99470.59;1724761;83;20979;-66
2021/12/13 01:41:22;;;;;;;2.20;2.00;;;;;;;6.63;69.32;99475.40;1726770;82;21085;-66
2021/12/13 01:43:54;;;;;;;2.90;2.45;;;;;;;6.63;69.30;99474.56;1725927;81;20889;-66
2021/12/13 01:46:21;;;;;;;2.12;1.90;;;;;;;6.59;69.14;99468.75;1726030;81;21155;-66
2021/12/13 01:48:48;;;;;;;1.62;1.52;;;;;;;6.54;69.26;99468.36;1723303;82;21562;-66
2021/12/13 01:51:19;;;;;;;2.37;2.17;;;;;;;6.55;69.21;99466.52;1714909;82;20949;-66
2021/12/13 01:53:53;;;;;;;2.37;2.17;;;;;;;6.52;69.04;99462.36;1717746;82;21017;-66
2021/12/13 01:56:54;;;;;;;2.00;1.80;;;;;;;6.53;69.09;99464.52;1681386;84;20987;-66
2021/12/13 02:02:15;;;;;;;1.65;1.55;;;;;;;6.58;68.91;99464.91;1737087;81;21058;-68
2021/12/13 02:04:43;;;;;;;1.57;1.22;;;;;;;6.58;68.85;99463.59;1719276;81;21020;-67
2021/12/13 02:07:09;;;;;;;1.77;1.50;;;;;;;6.58;68.74;99465.75;1744477;81;21088;-67
2021/12/13 02:09:40;;;;;;;2.90;2.17;;;;;;;6.58;68.78;99463.59;1745921;81;21083;-67
2021/12/13 02:12:15;;;;;;;2.92;2.22;;;;;;;6.60;68.68;99461.15;1744527;81;20971;-67
2021/12/13 02:16:55;;;;;;;1.72;1.60;;;;;;;6.58;68.63;99456.98;1728447;81;20948;-67
2021/12/13 02:17:21;;;;;;;1.87;1.77;;;;;;;6.58;68.66;99458.30;1737655;81;21088;-67
2021/12/13 02:19:59;;;;;;;1.75;1.47;;;;;;;6.62;68.60;99458.38;1744264;81;20986;-67
2021/12/13 02:22:33;;;;;;;1.55;1.45;;;;;;;6.62;68.54;99459.19;1745785;81;22068;-67
2021/12/13 02:25:14;;;;;;;1.22;0.95;;;;;;;6.61;68.50;99461.50;1744705;81;21161;-67
2021/12/13 02:27:45;;;;;;;1.52;1.22;;;;;;;6.62;68.29;99462.34;1737540;81;21498;-65
2021/12/13 02:30:22;;;;;;;0.80;0.80;;;;;;;6.59;68.23;99462.14;1736908;81;21353;-65
2021/12/13 02:32:49;;;;;;;1.17;1.07;;;;;;;6.56;68.28;99460.27;1688497;83;21007;-65
2021/12/13 02:35:17;;;;;;;1.07;0.95;;;;;;;6.56;68.33;99462.43;1725197;82;21616;-65
2021/12/13 02:37:43;;;;;;;0.95;0.72;;;;;;;6.60;68.32;99466.92;1728148;83;21836;-65
2021/12/13 02:40:12;;;;;;;0.95;0.70;;;;;;;6.59;68.20;99461.30;1726787;82;20971;-65
2021/12/13 02:42:38;;;;;;;0.88;0.80;;;;;;;6.51;67.96;99459.87;1728142;81;21546;-65
2021/12/13 02:45:25;;;;;;;1.02;0.90;;;;;;;6.44;68.29;99462.77;1715434;82;20912;-66
2021/12/13 02:47:58;;;;;;;0.62;0.62;;;;;;;6.45;68.38;99452.03;1729952;80;20976;-67
2021/12/13 02:50:45;;;;;;;0.72;0.68;;;;;;;6.45;68.42;99460.44;1755166;80;21150;-65
2021/12/13 02:53:13;;;;;;;0.80;0.80;;;;;;;6.50;68.38;99462.16;1754893;80;21738;-66
2021/12/13 02:55:40;;;;;;;0.60;0.60;;;;;;;6.45;74.16;99457.80;1759443;80;20943;-66
2021/12/13 02:58:09;;;;;;;0.80;0.80;;;;;;;6.38;75.34;99461.52;1753715;81;21061;-66
2021/12/13 03:01:00;;;;;;;0.53;0.53;;;;;;;6.40;72.70;99462.20;1751507;80;21021;-66
2021/12/13 03:03:30;;;;;;;0.50;0.50;;;;;;;6.42;71.22;99462.05;1757199;80;22330;-67
2021/12/13 03:05:59;;;;;;;0.78;0.78;;;;;;;6.37;71.16;99453.72;1758627;80;21021;-66
2021/12/13 03:08:34;;;;;;;0.57;0.57;;;;;;;6.37;71.17;99451.92;1755305;80;21089;-66
2021/12/13 03:11:04;;;;;;;0.82;0.80;;;;;;;6.33;71.05;99453.20;1752519;80;21482;-67
2021/12/13 03:13:33;;;;;;;0.47;0.47;;;;;;;6.28;71.12;99453.28;1750949;80;21417;-66
2021/12/13 03:16:14;;;;;;;0.72;0.62;;;;;;;6.31;71.25;99458.28;1753825;80;21152;-66
2021/12/13 03:19:04;;;;;;;0.78;0.62;;;;;;;6.30;71.31;99457.92;1751185;80;20906;-67
2021/12/13 03:22:02;;;;;;;0.65;0.65;;;;;;;6.23;71.56;99455.84;1756291;80;22506;-66
2021/12/13 03:24:52;;;;;;;0.80;0.60;;;;;;;6.21;72.37;99458.29;1754127;81;21487;-66
2021/12/13 03:27:50;;;;;;;0.40;0.40;;;;;;;6.21;73.12;99454.33;1749530;80;21554;-66
2021/12/13 03:30:31;;;;;;;0.95;0.72;;;;;;;6.23;73.59;99451.88;1753226;80;21184;-66
2021/12/13 03:33:05;;;;;;;0.60;0.60;;;;;;;6.15;74.30;99454.41;1732190;80;21060;-65
2021/12/13 03:35:44;;;;;;;0.65;0.60;;;;;;;6.13;74.54;99449.77;1754775;80;21068;-67
2021/12/13 03:38:16;;;;;;;0.75;0.50;;;;;;;6.14;74.41;99454.08;1755098;81;20902;-65
2021/12/13 03:40:42;;;;;;;0.55;0.50;;;;;;;6.16;74.48;99452.13;1743675;80;21526;-66
2021/12/13 03:43:12;;;;;;;0.55;0.55;;;;;;;6.18;74.62;99450.16;1750926;80;21154;-66
2021/12/13 03:45:44;;;;;;;0.78;0.60;;;;;;;6.22;74.52;99446.77;1755068;80;21473;-66
2021/12/13 03:48:14;;;;;;;0.45;0.45;;;;;;;6.16;74.46;99455.25;1749888;80;20941;-66
2021/12/13 03:50:44;;;;;;;0.50;0.50;;;;;;;6.09;74.69;99451.52;1742120;81;20999;-66
2021/12/13 03:53:24;;;;;;;0.70;0.60;;;;;;;6.10;75.12;99454.52;1734104;81;20930;-66
2021/12/13 03:56:01;;;;;;;0.50;0.40;;;;;;;6.01;75.07;99446.95;1739256;82;21156;-65
2021/12/13 03:58:25;;;;;;;0.72;0.60;;;;;;;5.93;75.39;99442.02;1742751;82;21092;-66
2021/12/13 04:00:59;;;;;;;0.98;0.60;;;;;;;5.92;75.71;99445.14;1745349;81;20856;-66
2021/12/13 04:03:26;;;;;;;0.68;0.68;;;;;;;5.92;75.71;99445.14;1740585;81;21056;-66
2021/12/13 04:05:53;;;;;;;0.60;0.60;;;;;;;5.88;75.75;99439.81;1738085;82;20887;-66
2021/12/13 04:08:19;;;;;;;0.30;0.30;;;;;;;5.85;75.82;99443.22;1740216;81;21139;-66
2021/12/13 04:10:53;;;;;;;0.55;0.55;;;;;;;5.80;76.93;99448.05;1742136;81;21008;-66
2021/12/13 04:13:23;;;;;;;0.65;0.65;;;;;;;5.78;76.27;99445.57;1739760;82;20997;-66
2021/12/13 04:16:14;;;;;;;0.60;0.50;;;;;;;5.77;76.45;99444.37;1741080;81;21524;-66
2021/12/13 04:21:14;;;;;;;0.90;0.78;;;;;;;5.85;76.25;99449.34;1742823;81;22028;-67
2021/12/13 04:23:40;;;;;;;1.10;1.00;;;;;;;5.85;76.22;99453.30;1740305;82;21508;-67
2021/12/13 04:26:10;;;;;;;1.27;1.17;;;;;;;5.85;76.09;99457.25;1740547;81;21013;-66
2021/12/13 04:28:42;;;;;;;1.50;1.20;;;;;;;5.85;79.16;99453.30;1736604;82;21021;-66
2021/12/13 04:31:12;;;;;;;1.57;1.47;;;;;;;5.84;80.34;99456.86;1736280;80;21017;-66
2021/12/13 04:33:42;;;;;;;1.50;1.40;;;;;;;5.86;77.58;99458.09;1740572;82;21122;-66
2021/12/13 04:36:19;;;;;;;4.15;1.52;;;;;;;5.87;77.16;99450.50;1744042;82;21485;-66
2021/12/13 04:38:59;;;;;;;2.77;2.58;;;;;;;5.87;76.83;99457.10;1733110;82;20994;-66
2021/12/13 04:41:49;;;;;;;2.65;2.10;;;;;;;5.88;76.57;99450.38;1738598;81;20949;-66
2021/12/13 04:44:23;;;;;;;1.12;1.02;;;;;;;5.88;76.51;99445.58;1730129;82;20887;-66
2021/12/13 04:46:51;;;;;;;0.82;0.82;;;;;;;5.93;76.53;99443.34;1714149;82;21128;-67
2021/12/13 04:49:20;;;;;;;0.60;0.60;;;;;;;6.02;76.28;99443.83;1749312;81;21011;-67
2021/12/13 04:51:59;;;;;;;0.40;0.40;;;;;;;6.01;76.09;99441.67;1718530;82;21565;-66
2021/12/13 04:54:28;;;;;;;0.78;0.78;;;;;;;5.97;75.92;99444.75;1699502;83;20994;-67
2021/12/13 04:56:56;;;;;;;0.40;0.40;;;;;;;5.95;75.99;99443.55;1752601;80;21050;-66
2021/12/13 04:59:23;;;;;;;0.57;0.57;;;;;;;5.96;75.95;99442.58;1718453;82;21143;-66
2021/12/13 05:01:53;;;;;;;0.60;0.60;;;;;;;5.96;75.71;99435.14;1753467;80;21493;-66
2021/12/13 05:04:23;;;;;;;0.47;0.47;;;;;;;5.93;75.65;99438.91;1749965;80;20950;-67
2021/12/13 05:06:51;;;;;;;0.93;0.55;;;;;;;5.98;75.57;99441.11;1752485;81;20943;-66
2021/12/13 05:09:19;;;;;;;0.50;0.50;;;;;;;5.99;75.42;99451.55;1752050;80;21538;-66
2021/12/13 05:12:13;;;;;;;0.57;0.50;;;;;;;6.01;75.32;99442.99;1752804;80;21155;-65
2021/12/13 05:14:53;;;;;;;1.20;0.85;;;;;;;6.07;75.77;99445.55;1750560;80;20943;-65
2021/12/13 05:17:24;;;;;;;0.50;0.50;;;;;;;6.04;75.36;99449.80;1718966;82;21067;-65
2021/12/13 05:19:59;;;;;;;0.40;0.40;;;;;;;6.06;75.43;99460.56;1718722;82;21424;-66
2021/12/13 05:22:25;;;;;;;1.25;1.10;;;;;;;5.99;77.54;99457.31;1703410;82;21033;-66
2021/12/13 05:24:59;;;;;;;1.35;1.20;;;;;;;5.96;76.52;99451.83;1688818;84;21204;-66
2021/12/13 05:27:33;;;;;;;2.10;1.90;;;;;;;5.95;76.18;99450.63;1718307;81;21045;-66
2021/12/13 05:30:14;;;;;;;3.20;2.90;;;;;;;5.93;76.84;99450.78;1718759;82;21019;-66
2021/12/13 05:32:47;;;;;;;2.83;2.62;;;;;;;5.82;82.10;99456.66;1716882;82;20961;-66
2021/12/13 05:35:33;;;;;;;1.95;1.85;;;;;;;5.81;82.29;99458.97;1717520;82;21421;-66
2021/12/13 05:38:04;;;;;;;1.70;1.60;;;;;;;5.78;79.89;99457.92;1718853;82;21141;-65
2021/12/13 05:40:38;;;;;;;1.50;1.40;;;;;;;5.82;78.39;99463.27;1717918;82;21005;-65
2021/12/13 05:43:24;;;;;;;1.62;1.52;;;;;;;5.79;78.38;99460.92;1720564;81;20950;-65
2021/12/13 05:46:02;;;;;;;2.65;1.90;;;;;;;5.79;78.03;99476.77;1751999;81;20998;-65
2021/12/13 05:48:39;;;;;;;1.50;1.40;;;;;;;5.80;80.66;99487.66;1747720;80;21025;-66
2021/12/13 05:51:29;;;;;;;0.95;0.95;;;;;;;5.79;78.33;99486.81;1726200;82;21107;-66
2021/12/13 05:54:03;;;;;;;0.90;0.85;;;;;;;5.78;79.71;99485.65;1722820;82;21071;-66
2021/12/13 05:56:45;;;;;;;0.90;0.90;;;;;;;5.78;78.97;99489.13;1716399;82;21588;-66
2021/12/13 05:59:17;;;;;;;1.30;0.80;;;;;;;5.77;78.16;99493.20;1723729;82;20949;-66
2021/12/13 06:02:13;;;;;;;1.32;1.22;;;;;;;5.84;77.77;99494.34;1726025;82;20911;-66
2021/12/13 06:04:44;;;;;;;;;;;;;;;5.84;77.94;99498.30;1696534;84;21140;-66
2021/12/13 06:07:18;;;;;;;0.88;0.88;;;;;;;5.84;78.29;99489.87;1687234;84;20088;-66
2021/12/13 06:09:59;;;;;;;0.50;0.50;;;;;;;5.87;77.51;99494.91;1688028;85;21428;-67
2021/12/13 06:12:39;;;;;;;0.80;0.80;;;;;;;5.86;78.39;99497.70;1685916;84;21025;-66
2021/12/13 06:15:24;;;;;;;1.22;0.95;;;;;;;5.89;78.49;99500.88;1679139;85;21413;-66
2021/12/13 06:18:04;;;;;;;0.78;0.70;;;;;;;5.94;78.27;99503.11;1679334;84;21171;-66
2021/12/13 06:20:47;;;;;;;0.68;0.68;;;;;;;5.92;79.49;99509.84;1685415;84;20959;-67
2021/12/13 06:23:26;;;;;;;0.40;0.40;;;;;;;5.93;77.94;99508.88;1693228;83;20975;-67
2021/12/13 06:26:08;;;;;;;0.60;0.60;;;;;;;5.96;77.60;99510.41;1694383;83;20995;-67
2021/12/13 06:28:44;;;;;;;0.78;0.60;;;;;;;5.98;77.21;99505.33;1693050;83;20908;-67
2021/12/13 06:31:14;;;;;;;0.62;0.62;;;;;;;5.99;77.76;99514.09;1683101;83;21176;-67
2021/12/13 06:33:57;;;;;;;1.05;0.93;;;;;;;6.00;83.97;99511.30;1702667;82;21101;-69
2021/12/13 06:36:39;;;;;;;0.62;0.62;;;;;;;6.02;82.09;99507.21;1701597;83;20930;-68
2021/12/13 06:39:18;;;;;;;1.12;1.00;;;;;;;6.05;77.83;99509.55;1701217;83;20987;-68
2021/12/13 06:41:48;;;;;;;1.12;0.85;;;;;;;6.04;77.61;99508.73;1693892;83;20941;-69
2021/12/13 06:44:29;;;;;;;1.40;1.30;;;;;;;6.02;78.40;99506.70;1699761;83;21113;-65
2021/12/13 06:47:05;;;;;;;2.45;1.80;;;;;;;6.03;77.53;99512.34;1692184;84;20968;-68
2021/12/13 06:49:38;;;;;;;0.88;0.88;;;;;;;6.07;77.63;99514.22;1704499;83;20977;-66
2021/12/13 06:52:13;;;;;;;0.90;0.90;;;;;;;6.03;78.08;99517.62;1710248;82;20864;-66
2021/12/13 06:54:47;;;;;;;1.05;0.70;;;;;;;5.93;81.20;99514.64;1743612;80;20943;-65
2021/12/13 06:57:24;;;;;;;1.47;0.95;;;;;;;5.94;81.45;99515.00;1722599;81;21133;-68
2021/12/13 06:59:59;;;;;;;0.78;0.78;;;;;;;6.02;80.41;99519.91;1752526;80;21054;-69
2021/12/13 07:02:46;;;;;;;0.68;0.68;;;;;;;6.08;78.68;99516.70;1719082;82;21049;-68
2021/12/13 07:05:28;;;;;;;0.70;0.70;;;;;;;6.06;80.28;99520.47;1718233;82;21083;-67
2021/12/13 07:08:03;;;;;;;1.00;0.90;;;;;;;6.06;79.19;99521.78;1745916;80;20926;-67
2021/12/13 07:10:45;;;;;;;0.72;0.72;;;;;;;6.08;78.55;99526.44;1755351;80;21121;-65
2021/12/13 07:13:26;;;;;;;0.68;0.68;;;;;;;6.01;80.15;99521.37;1750568;80;21484;-68
2021/12/13 07:16:06;;;;;;;0.90;0.90;;;;;;;5.99;80.18;99525.97;1725079;81;21477;-66
2021/12/13 07:19:05;;;;;;;0.82;0.80;;;;;;;6.06;79.37;99527.91;1756564;80;20943;-65
2021/12/13 07:21:32;;;;;;;1.55;1.17;;;;;;;6.02;84.45;99523.86;1719278;81;21145;-64
2021/12/13 07:24:12;;;;;;;2.15;1.37;;;;;;;6.05;92.98;99528.03;1717878;82;21496;-65
2021/12/13 07:26:53;;;;;;;2.17;1.05;;;;;;;6.08;82.10;99527.75;1713685;82;20927;-68
2021/12/13 07:29:30;;;;;;;1.25;0.90;;;;;;;6.11;80.34;99532.28;1753240;80;20938;-66
2021/12/13 07:32:34;;;;;;;0.62;0.62;;;;;;;6.14;80.66;99531.16;1753692;80;21478;-63
2021/12/13 07:35:16;;;;;;;1.12;1.05;;;;;;;6.22;80.09;99528.66;1750349;80;21004;-68
2021/12/13 07:37:53;;;;;;;1.75;1.05;;;;;;;6.28;79.57;99532.06;1750556;81;21855;-64
2021/12/13 07:40:34;;;;;;;2.55;1.62;;;;;;;6.26;80.03;99526.58;1751983;80;20990;-66
2021/12/13 07:43:28;;;;;;;3.12;1.70;;;;;;;6.30;79.81;99528.78;1752498;80;21054;-64
2021/12/13 07:46:10;;;;;;;2.60;1.82;;;;;;;6.35;80.62;99528.34;1751226;80;21118;-73
2021/12/13 07:48:45;;;;;;;2.27;1.82;;;;;;;6.39;80.98;99531.06;1755591;80;20977;-61
2021/12/13 07:51:31;;;;;;;2.17;1.50;;;;;;;6.45;80.11;99537.08;1756151;80;21061;-61
2021/12/13 07:54:03;;;;;;;2.35;1.40;;;;;;;6.47;79.48;99531.16;1751982;80;20954;-64
2021/12/13 07:56:38;;;;;;;2.75;1.82;;;;;;;6.52;79.12;99536.84;1718849;82;20975;-64
2021/12/13 07:59:28;;;;;;;3.45;2.70;;;;;;;6.56;78.92;99539.56;1718406;81;21001;-65
2021/12/13 08:02:26;;;;;;;5.12;2.75;;;;;;;6.57;78.46;99546.53;1748467;80;20971;-64
2021/12/13 08:05:05;;;;;;;4.08;2.33;;;;;;;6.55;78.49;99541.37;1731644;80;21163;-63
2021/12/13 08:07:42;;;;;;;2.37;1.80;;;;;;;6.56;78.26;99536.92;1727948;82;20905;-64
2021/12/13 08:10:23;;;;;;;3.85;2.05;;;;;;;6.62;78.20;99546.42;1697434;83;20939;-65
2021/12/13 08:13:02;;;;;;;2.85;1.92;;;;;;;6.68;78.10;99556.91;1750683;80;21019;-68
2021/12/13 08:15:40;;;;;;;2.30;1.90;;;;;;;6.62;78.40;99556.19;1751809;80;21472;-66
2021/12/13 08:18:36;;;;;;;1.70;1.42;;;;;;;6.62;78.75;99545.61;1740987;81;21156;-66
2021/12/13 08:21:13;;;;;;;2.00;1.70;;;;;;;6.63;78.73;99552.06;1753777;80;21431;-64
2021/12/13 08:23:44;;;;;;;4.37;2.33;;;;;;;6.66;78.82;99557.55;1751871;80;20948;-63
2021/12/13 08:26:15;;;;;;;3.65;2.40;;;;;;;6.72;78.30;99554.34;1752175;80;21058;-62
2021/12/13 08:28:47;;;;;;;1.87;1.70;;;;;;;6.78;78.06;99557.23;1748530;80;21544;-62
2021/12/13 08:31:28;;;;;;;4.70;3.62;;;;;;;6.78;77.92;99555.91;1715988;82;21141;-63
2021/12/13 08:34:08;;;;;;;5.08;2.75;;;;;;;6.81;77.72;99562.72;1715587;82;21044;-65
2021/12/13 08:36:44;;;;;;;4.30;2.77;;;;;;;6.84;77.63;99577.81;1717693;82;21014;-70
2021/12/13 08:39:21;;;;;;;2.62;2.30;;;;;;;6.88;77.54;99569.11;1685576;84;21031;-63
2021/12/13 08:41:52;;;;;;;4.17;3.12;;;;;;;6.95;77.30;99570.20;1727178;82;21048;-62
2021/12/13 08:44:29;;;;;;;10.20;9.08;;;;;;;6.96;77.05;99569.71;1725314;81;21159;-61
2021/12/13 08:47:06;;;;;;;10.32;8.83;;;;;;;6.99;77.05;99571.55;1752288;80;21510;-62
2021/12/13 08:49:42;;;;;;;12.15;10.85;;;;;;;7.00;76.94;99563.98;1751745;81;21127;-62
2021/12/13 08:52:26;;;;;;;12.18;10.98;;;;;;;6.94;76.77;99569.00;1752154;80;20914;-59
2021/12/13 08:54:58;;;;;;;14.55;13.25;;;;;;;6.83;77.31;99570.01;1751106;81;21026;-63
2021/12/13 08:57:52;;;;;;;17.30;15.60;;;;;;;6.75;77.14;99569.41;1752400;80;21135;-60
2021/12/13 09:00:41;;;;;;;19.67;17.92;;;;;;;6.74;77.95;99564.28;1750690;81;20930;-63
2021/12/13 09:03:22;;;;;;;19.60;17.75;;;;;;;6.76;76.73;99568.45;1752021;80;21082;-62
2021/12/13 09:06:03;;;;;;;25.15;22.05;;;;;;;6.78;76.59;99565.16;1752000;81;21530;-63
2021/12/13 09:08:36;;;;;;;19.37;17.23;;;;;;;;;;1751319;80;21047;-64
2021/12/13 09:11:18;;;;;;;21.27;19.15;;;;;;;;;;1751340;80;21078;-63
2021/12/13 09:13:53;;;;;;;22.75;20.45;;;;;;;;;;1752323;80;20879;-63
2021/12/13 09:16:22;;;;;;;22.65;20.40;;;;;;;;;;1751638;80;21070;-64
2021/12/13 09:19:08;;;;;;;25.40;22.80;;;;;;;;;;1728590;82;21489;-63
2021/12/13 09:21:47;;;;;;;26.42;23.83;;;;;;;;;;1753582;80;21441;-61
2021/12/13 09:24:25;;;;;;;30.97;27.67;;;;;;;;;;1751881;80;22260;-61
2021/12/13 09:26:51;;;;;;;27.40;24.60;;;;;;;;;;1752518;80;20978;-77
2021/12/13 09:29:18;;;;;;;23.50;21.10;;;;;;;;;;1752270;80;20930;-63
2021/12/13 09:31:44;;;;;;;20.75;18.62;;;;;;;;;;1752994;81;21368;-74
2021/12/13 09:34:16;;;;;;;20.85;18.80;;;;;;;;;;1754848;80;20939;-64
2021/12/13 09:36:44;;;;;;;21.42;19.42;;;;;;;;;;1759434;80;21136;-66
2021/12/13 09:39:21;;;;;;;22.90;20.65;;;;;;;;;;1752072;80;20973;-63
2021/12/13 09:41:52;;;;;;;21.60;19.25;;;;;;;;;;1758701;80;20950;-61
2021/12/13 09:44:29;;;;;;;25.50;22.90;;;;;;;;;;1750898;80;21532;-65
2021/12/13 09:47:03;;;;;;;34.08;29.75;;;;;;;;;;1744801;80;21087;-63
2021/12/13 09:49:36;;;;;;;30.45;27.27;;;;;;;;;;1751542;80;21172;-64
2021/12/13 09:52:06;;;;;;;20.60;18.60;;;;;;;;;;1737647;80;21470;-66
2021/12/13 09:54:37;;;;;;;19.67;17.80;;;;;;;;;;1752035;80;20943;-65
2021/12/13 09:57:07;;;;;;;19.65;17.70;;;;;;;;;;1752589;80;20988;-64
2021/12/13 09:59:37;;;;;;;19.65;17.73;;;;;;;;;;1750968;81;21437;-65
2021/12/13 10:02:06;;;;;;;16.05;14.45;;;;;;;;;;1757827;81;21164;-62
2021/12/13 10:04:35;;;;;;;14.63;13.32;;;;;;;;;;1748438;81;21397;-61
2021/12/13 10:07:05;;;;;;;11.90;10.80;;;;;;;;;;1756105;80;20887;-60
2021/12/13 10:09:36;;;;;;;10.85;9.78;;;;;;;;;;1717445;83;20960;-64
2021/12/13 10:12:17;;;;;;;8.08;7.28;;;;;;;;;;1754000;80;21006;-66
2021/12/13 10:14:52;;;;;;;11.03;9.98;;;;;;;;;;1746286;81;21101;-63
2021/12/13 10:17:20;;;;;;;18.95;17.05;;;;;;;;;;1752409;80;20898;-62
2021/12/13 10:19:51;;;;;;;19.12;16.42;;;;;;;;;;1753817;80;20855;-65
2021/12/13 10:22:20;;;;;;;26.33;23.57;;;;;;;;;;1752535;80;20976;-68
2021/12/13 10:24:50;;;;;;;20.25;18.35;;;;;;;;;;1751632;80;20860;-64
2021/12/13 10:27:17;;;;;;;20.62;18.48;;;;;;;;;;1752151;80;21381;-63
2021/12/13 10:29:46;;;;;;;15.15;13.65;;;;;;;;;;1752293;80;20952;-65
2021/12/13 10:32:16;;;;;;;16.97;15.23;;;;;;;;;;1751240;80;21449;-66
2021/12/13 10:34:45;;;;;;;23.47;20.88;;;;;;;;;;1750932;80;21048;-65
2021/12/13 10:37:15;;;;;;;27.27;24.35;;;;;;;;;;1752290;80;21423;-63
2021/12/13 10:39:48;;;;;;;27.98;25.12;;;;;;;;;;1751658;80;21878;-65
2021/12/13 10:42:20;;;;;;;26.48;23.40;;;;;;;;;;1757495;80;20907;-64
2021/12/13 10:44:47;;;;;;;29.05;26.10;;;;;;;;;;1752048;80;20900;-65
2021/12/13 10:47:20;;;;;;;26.60;23.80;;;;;;;;;;1752269;80;21423;-62
2021/12/13 10:49:47;;;;;;;23.45;21.17;;;;;;;;;;1751783;80;21541;-62
2021/12/13 10:52:17;;;;;;;21.55;19.37;;;;;;;;;;1752123;80;21786;-62
2021/12/13 10:54:46;;;;;;;16.65;15.10;;;;;;;;;;1754009;80;21047;-62
2021/12/13 10:57:16;;;;;;;15.90;14.40;;;;;;;;;;1752572;80;21000;-65
2021/12/13 10:59:42;;;;;;;20.77;18.67;;;;;;;;;;1750469;80;21436;-62
2021/12/13 11:02:11;;;;;;;22.20;19.95;;;;;;;;;;1752208;81;20994;-65
2021/12/13 11:04:40;;;;;;;20.80;18.77;;;;;;;;;;1752425;80;21165;-64
2021/12/13 11:07:08;;;;;;;34.25;29.25;;;;;;;;;;1751450;80;20886;-61
2021/12/13 11:09:35;;;;;;;44.95;37.35;;;;;;;;;;1754953;80;21099;-65
2021/12/13 11:12:05;;;;;;;39.98;35.73;;;;;;;;;;1758446;80;21501;-63
2021/12/13 11:14:33;;;;;;;42.83;36.30;;;;;;;;;;1751648;80;21472;-62
2021/12/13 11:17:02;;;;;;;47.15;41.02;;;;;;;;;;1755584;80;21967;-66
2021/12/13 11:19:32;;;;;;;54.60;46.18;;;;;;;;;;1750352;80;20942;-65
2021/12/13 11:22:02;;;;;;;60.60;50.58;;;;;;;;;;1757271;80;21576;-62
2021/12/13 11:24:30;;;;;;;52.90;43.60;;;;;;;;;;1754087;80;21049;-61
2021/12/13 11:26:59;;;;;;;44.13;38.83;;;;;;;;;;1751518;80;20942;-62
2021/12/13 11:29:28;;;;;;;53.58;43.98;;;;;;;;;;1749284;80;21228;-62
2021/12/13 11:32:05;;;;;;;56.40;46.85;;;;;;;;;;1757298;80;21803;-64
2021/12/13 11:35:02;;;;;;;55.35;46.33;;;;;;;;;;1746841;81;20986;-63
2021/12/13 11:37:55;;;;;;;45.65;39.23;;;;;;;;;;1751595;80;20946;-64
2021/12/13 11:41:00;;;;;;;40.50;36.00;;;;;;;;;;1752455;80;20887;-65
2021/12/13 11:43:42;;;;;;;46.42;39.08;;;;;;;;;;1756084;80;21264;-63
2021/12/13 11:46:30;;;;;;;41.37;35.68;;;;;;;;;;1719947;82;20946;-63
2021/12/13 11:49:22;;;;;;;34.00;30.37;;;;;;;;;;1753485;81;20966;-63
2021/12/13 11:51:56;;;;;;;41.65;36.10;;;;;;;;;;1735639;81;21469;-63
2021/12/13 11:54:53;;;;;;;42.05;36.23;;;;;;;;;;1702002;83;20967;-63
2021/12/13 11:57:57;;;;;;;46.70;39.38;;;;;;;;;;1730450;81;21140;-63
2021/12/13 12:00:28;;;;;;;48.87;41.75;;;;;;;;;;1729243;81;47591;-65
2021/12/13 12:03:20;;;;;;;41.30;36.03;;;;;;;;;;1729075;82;20990;-63
2021/12/13 12:06:23;;;;;;;33.55;29.23;;;;;;;;;;1720894;83;20871;-64
2021/12/13 12:09:05;;;;;;;37.65;32.88;;;;;;;;;;1730252;82;20966;-62
2021/12/13 12:11:58;;;;;;;34.25;29.98;;;;;;;;;;1727239;82;21162;-63
2021/12/13 12:14:28;;;;;;;37.45;32.80;;;;;;;;;;1728615;81;21481;-65
2021/12/13 12:16:53;;;;;;;34.95;31.15;;;;;;;;;;1729999;81;21070;-63
2021/12/13 12:19:27;;;;;;;38.95;32.93;;;;;;;;;;1729276;82;20942;-64
2021/12/13 12:22:05;;;;;;;40.65;34.78;;;;;;;;;;1729223;83;20914;-63
2021/12/13 12:24:40;;;;;;;43.45;36.50;;;;;;;;;;1728247;82;21115;-63
2021/12/13 12:27:11;;;;;;;49.23;41.85;;;;;;;;;;1701506;82;20906;-62
2021/12/13 12:29:44;;;;;;;51.75;42.60;;;;;;;;;;1727883;82;20966;-63
2021/12/13 12:32:32;;;;;;;40.55;33.28;;;;;;;;;;1696757;83;21089;-64
2021/12/13 12:35:04;;;;;;;30.72;27.32;;;;;;;;;;1725555;82;20974;-65
2021/12/13 12:38:01;;;;;;;35.13;31.37;;;;;;;;;;1729307;81;21179;-65
2021/12/13 12:40:35;;;;;;;38.42;33.18;;;;;;;;;;1739512;81;21559;-64
2021/12/13 12:43:07;;;;;;;38.28;33.53;;;;;;;;;;1729255;81;20998;-64
2021/12/13 12:45:49;;;;;;;37.00;30.45;;;;;;;;;;1694194;82;21002;-64
2021/12/13 12:48:19;;;;;;;31.55;27.85;;;;;;;;;;1729802;81;21418;-69
2021/12/13 12:50:53;;;;;;;20.52;18.00;;;;;;;;;;1723757;81;21097;-61
2021/12/13 12:53:34;;;;;;;22.15;18.15;;;;;;;;;;1751639;80;20931;-63
2021/12/13 12:56:04;;;;;;;19.07;17.23;;;;;;;;;;1752381;81;20994;-60
2021/12/13 12:58:49;;;;;;;17.87;16.10;;;;;;;;;;1751893;80;20943;-62
2021/12/13 13:01:18;;;;;;;14.83;13.20;;;;;;;;;;1751704;80;20847;-62
2021/12/13 13:03:45;;;;;;;15.28;13.62;;;;;;;;;;1751890;80;21123;-61
2021/12/13 13:06:14;;;;;;;12.37;10.75;;;;;;;;;;1752279;81;21517;-62
2021/12/13 13:08:42;;;;;;;11.12;9.93;;;;;;;;;;1748880;80;20946;-63
2021/12/13 13:13:46;;;;;;;17.85;13.35;;;;;;;;;;1752220;80;21010;-62
2021/12/13 13:16:12;;;;;;;12.68;11.48;;;;;;;;;;1752071;80;21160;-62
2021/12/13 13:18:40;;;;;;;11.12;10.13;;;;;;;;;;1755628;80;20903;-63